?

Log in

No account? Create an account

Previous | Next

flying weather? maybe yes, maybe no.

TAF KCMI 090223Z 090224 17014KT P6SM SCT010 BKN080
TEMPO 0307 2SM TSRA BR BKN010CB
FM0700 21014KT P6SM BKN080
TEMPO 0710 3SM TSRA BR BKN010CB
FM1000 27012G22KT 6SM -SHRA BR BKN030
FM1500 27015G25KT P6SM SCT100
FM2000 28017G27KT P6SM BKN100=

Not exactly the best flying weather for tomorrow morning. That wind will more or less guarantee some rather interesting crosswind landings. At least the storms are supposed to be out of here by the wee hours, and the low-ish clouds too, by 10am which is when we're supposed to take to the air.

In the mean time, I'm stuck here at work, trying to debug a 1 million discard per minute problem on one of our main core links. We were fighting this problem all day, but sometimes it helps to be able to get some quiet "one on one" time with a problem.

Off to work.

Tags:

Profile

14L
szasz
Charley

Latest Month

July 2013
S M T W T F S
 123456
78910111213
14151617181920
21222324252627
28293031